sensor_id;sensor_type;location;lat;lon;timestamp;pressure;altitude;pressure_sealevel;temperature;humidity
84145;BME280;74264;48.988;12.040;2024-01-10T00:00:38;98735.00;;;-6.70;69.97
84145;BME280;74264;48.988;12.040;2024-01-10T00:03:04;98728.34;;;-6.77;70.03
84145;BME280;74264;48.988;12.040;2024-01-10T00:05:30;98727.59;;;-6.82;70.43
84145;BME280;74264;48.988;12.040;2024-01-10T00:07:55;98721.16;;;-6.96;71.32
84145;BME280;74264;48.988;12.040;2024-01-10T00:10:21;98724.44;;;-6.91;70.90
84145;BME280;74264;48.988;12.040;2024-01-10T00:12:49;98726.91;;;-6.87;70.54
84145;BME280;74264;48.988;12.040;2024-01-10T00:15:15;98725.63;;;-6.72;69.95
84145;BME280;74264;48.988;12.040;2024-01-10T00:17:41;98722.25;;;-6.74;70.24
84145;BME280;74264;48.988;12.040;2024-01-10T00:20:07;98716.28;;;-6.76;70.09
84145;BME280;74264;48.988;12.040;2024-01-10T00:22:33;98718.81;;;-6.75;71.16
84145;BME280;74264;48.988;12.040;2024-01-10T00:24:58;98724.97;;;-6.79;70.16
84145;BME280;74264;48.988;12.040;2024-01-10T00:27:24;98720.84;;;-6.84;71.20
84145;BME280;74264;48.988;12.040;2024-01-10T00:29:49;98727.81;;;-6.89;71.22
84145;BME280;74264;48.988;12.040;2024-01-10T00:32:17;98721.69;;;-6.85;70.87
84145;BME280;74264;48.988;12.040;2024-01-10T00:34:42;98713.31;;;-6.92;71.22
84145;BME280;74264;48.988;12.040;2024-01-10T00:37:08;98716.31;;;-7.07;71.90
84145;BME280;74264;48.988;12.040;2024-01-10T00:39:33;98724.41;;;-7.22;72.51
84145;BME280;74264;48.988;12.040;2024-01-10T00:41:59;98727.09;;;-7.25;72.77
84145;BME280;74264;48.988;12.040;2024-01-10T00:44:25;98722.94;;;-7.32;73.06
84145;BME280;74264;48.988;12.040;2024-01-10T00:46:50;98729.19;;;-7.41;74.15
84145;BME280;74264;48.988;12.040;2024-01-10T00:49:16;98729.56;;;-7.56;74.52
84145;BME280;74264;48.988;12.040;2024-01-10T00:51:41;98735.56;;;-7.55;74.09
84145;BME280;74264;48.988;12.040;2024-01-10T00:54:07;98726.81;;;-7.48;74.28
84145;BME280;74264;48.988;12.040;2024-01-10T00:56:33;98730.91;;;-7.40;74.03
84145;BME280;74264;48.988;12.040;2024-01-10T00:58:58;98731.00;;;-7.44;73.81
84145;BME280;74264;48.988;12.040;2024-01-10T01:01:24;98732.81;;;-7.48;74.17
84145;BME280;74264;48.988;12.040;2024-01-10T01:03:50;98736.31;;;-7.52;75.14
84145;BME280;74264;48.988;12.040;2024-01-10T01:06:16;98728.75;;;-7.58;74.72
84145;BME280;74264;48.988;12.040;2024-01-10T01:08:41;98741.69;;;-7.61;75.35
84145;BME280;74264;48.988;12.040;2024-01-10T01:11:07;98739.78;;;-7.53;74.52
84145;BME280;74264;48.988;12.040;2024-01-10T01:13:32;98750.00;;;-7.50;74.08
84145;BME280;74264;48.988;12.040;2024-01-10T01:15:58;98744.09;;;-7.53;74.08
84145;BME280;74264;48.988;12.040;2024-01-10T01:18:24;98756.22;;;-7.60;74.54
84145;BME280;74264;48.988;12.040;2024-01-10T01:20:49;98753.75;;;-7.63;73.83
84145;BME280;74264;48.988;12.040;2024-01-10T01:23:16;98755.38;;;-7.59;73.99
84145;BME280;74264;48.988;12.040;2024-01-10T01:25:41;98755.38;;;-7.59;74.07
84145;BME280;74264;48.988;12.040;2024-01-10T01:28:08;98754.91;;;-7.76;75.40
84145;BME280;74264;48.988;12.040;2024-01-10T01:30:33;98763.63;;;-7.81;75.59
84145;BME280;74264;48.988;12.040;2024-01-10T01:32:59;98762.56;;;-7.73;74.88
84145;BME280;74264;48.988;12.040;2024-01-10T01:35:24;98759.03;;;-7.69;75.29
84145;BME280;74264;48.988;12.040;2024-01-10T01:37:50;98754.78;;;-7.70;74.97
84145;BME280;74264;48.988;12.040;2024-01-10T01:40:18;98760.66;;;-7.65;74.79
84145;BME280;74264;48.988;12.040;2024-01-10T01:42:45;98756.19;;;-7.57;74.76
84145;BME280;74264;48.988;12.040;2024-01-10T01:45:11;98753.59;;;-7.57;74.59
84145;BME280;74264;48.988;12.040;2024-01-10T01:47:38;98747.56;;;-7.56;74.34
84145;BME280;74264;48.988;12.040;2024-01-10T01:50:05;98746.16;;;-7.67;75.35
84145;BME280;74264;48.988;12.040;2024-01-10T01:52:31;98749.69;;;-7.71;75.16
84145;BME280;74264;48.988;12.040;2024-01-10T01:54:57;98748.88;;;-7.73;75.07
84145;BME280;74264;48.988;12.040;2024-01-10T01:57:23;98753.06;;;-7.69;74.92
84145;BME280;74264;48.988;12.040;2024-01-10T01:59:49;98752.28;;;-7.73;75.80
84145;BME280;74264;48.988;12.040;2024-01-10T02:02:16;98755.13;;;-7.85;76.22
84145;BME280;74264;48.988;12.040;2024-01-10T02:04:42;98749.31;;;-7.93;76.36
84145;BME280;74264;48.988;12.040;2024-01-10T02:07:07;98745.16;;;-7.97;76.32
84145;BME280;74264;48.988;12.040;2024-01-10T02:09:33;98748.38;;;-7.89;75.89
84145;BME280;74264;48.988;12.040;2024-01-10T02:11:58;98742.97;;;-7.77;74.73
84145;BME280;74264;48.988;12.040;2024-01-10T02:14:24;98745.31;;;-7.68;74.43
84145;BME280;74264;48.988;12.040;2024-01-10T02:16:49;98745.47;;;-7.75;74.74
84145;BME280;74264;48.988;12.040;2024-01-10T02:19:22;98750.06;;;-7.88;75.98
84145;BME280;74264;48.988;12.040;2024-01-10T02:21:48;98751.09;;;-7.95;75.76
84145;BME280;74264;48.988;12.040;2024-01-10T02:24:14;98751.22;;;-8.01;76.41
84145;BME280;74264;48.988;12.040;2024-01-10T02:26:40;98751.16;;;-7.98;75.97
84145;BME280;74264;48.988;12.040;2024-01-10T02:29:06;98743.56;;;-8.02;76.67
84145;BME280;74264;48.988;12.040;2024-01-10T02:31:32;98747.13;;;-8.10;76.86
84145;BME280;74264;48.988;12.040;2024-01-10T02:33:57;98750.63;;;-8.12;77.10
84145;BME280;74264;48.988;12.040;2024-01-10T02:36:23;98746.47;;;-8.18;77.48
84145;BME280;74264;48.988;12.040;2024-01-10T02:38:48;98745.50;;;-8.12;76.83
84145;BME280;74264;48.988;12.040;2024-01-10T02:41:15;98747.06;;;-8.06;76.62
84145;BME280;74264;48.988;12.040;2024-01-10T02:43:40;98753.84;;;-8.04;76.69
84145;BME280;74264;48.988;12.040;2024-01-10T02:46:06;98742.78;;;-8.06;76.44
84145;BME280;74264;48.988;12.040;2024-01-10T02:48:31;98747.94;;;-8.07;76.38
84145;BME280;74264;48.988;12.040;2024-01-10T02:50:57;98753.97;;;-8.08;76.79
84145;BME280;74264;48.988;12.040;2024-01-10T02:53:23;98736.97;;;-8.14;77.48
84145;BME280;74264;48.988;12.040;2024-01-10T02:55:48;98745.66;;;-8.20;77.24
84145;BME280;74264;48.988;12.040;2024-01-10T02:58:15;98734.53;;;-8.20;76.61
84145;BME280;74264;48.988;12.040;2024-01-10T03:00:40;98738.00;;;-8.21;77.23
84145;BME280;74264;48.988;12.040;2024-01-10T03:03:06;98747.53;;;-8.26;77.27
84145;BME280;74264;48.988;12.040;2024-01-10T03:05:31;98743.19;;;-8.24;77.69
84145;BME280;74264;48.988;12.040;2024-01-10T03:07:57;98746.66;;;-8.25;77.40
84145;BME280;74264;48.988;12.040;2024-01-10T03:10:23;98739.00;;;-8.27;77.56
84145;BME280;74264;48.988;12.040;2024-01-10T03:12:48;98738.16;;;-8.27;78.19
84145;BME280;74264;48.988;12.040;2024-01-10T03:15:14;98736.44;;;-8.27;77.78
84145;BME280;74264;48.988;12.040;2024-01-10T03:17:39;98737.28;;;-8.28;77.71
84145;BME280;74264;48.988;12.040;2024-01-10T03:20:07;98733.91;;;-8.30;78.16
84145;BME280;74264;48.988;12.040;2024-01-10T03:22:34;98739.16;;;-8.34;77.55
84145;BME280;74264;48.988;12.040;2024-01-10T03:25:00;98734.09;;;-8.39;77.68
84145;BME280;74264;48.988;12.040;2024-01-10T03:27:25;98733.34;;;-8.42;77.68
84145;BME280;74264;48.988;12.040;2024-01-10T03:29:51;98730.09;;;-8.50;77.74
84145;BME280;74264;48.988;12.040;2024-01-10T03:32:17;98738.72;;;-8.53;79.11
84145;BME280;74264;48.988;12.040;2024-01-10T03:34:42;98736.13;;;-8.53;78.59
84145;BME280;74264;48.988;12.040;2024-01-10T03:37:08;98734.38;;;-8.51;78.90
84145;BME280;74264;48.988;12.040;2024-01-10T03:39:33;98730.97;;;-8.51;78.80
84145;BME280;74264;48.988;12.040;2024-01-10T03:41:59;98733.66;;;-8.57;79.43
84145;BME280;74264;48.988;12.040;2024-01-10T03:44:26;98737.97;;;-8.59;79.37
84145;BME280;74264;48.988;12.040;2024-01-10T03:46:52;98740.59;;;-8.62;79.54
84145;BME280;74264;48.988;12.040;2024-01-10T03:49:17;98736.34;;;-8.62;79.02
84145;BME280;74264;48.988;12.040;2024-01-10T03:51:43;98739.72;;;-8.61;78.86
84145;BME280;74264;48.988;12.040;2024-01-10T03:54:08;98734.66;;;-8.64;79.25
84145;BME280;74264;48.988;12.040;2024-01-10T03:56:34;98734.69;;;-8.66;78.55
84145;BME280;74264;48.988;12.040;2024-01-10T03:58:59;98739.16;;;-8.75;79.06
84145;BME280;74264;48.988;12.040;2024-01-10T04:01:26;98740.31;;;-8.90;80.50
84145;BME280;74264;48.988;12.040;2024-01-10T04:03:52;98736.03;;;-8.89;79.95
84145;BME280;74264;48.988;12.040;2024-01-10T04:06:17;98738.59;;;-8.89;80.30
84145;BME280;74264;48.988;12.040;2024-01-10T04:08:43;98736.06;;;-8.92;80.47
84145;BME280;74264;48.988;12.040;2024-01-10T04:11:09;98737.81;;;-8.94;80.35
84145;BME280;74264;48.988;12.040;2024-01-10T04:13:35;98737.03;;;-8.96;80.86
84145;BME280;74264;48.988;12.040;2024-01-10T04:16:00;98741.31;;;-8.97;79.73
84145;BME280;74264;48.988;12.040;2024-01-10T04:18:26;98736.19;;;-8.97;80.57
84145;BME280;74264;48.988;12.040;2024-01-10T04:20:52;98749.03;;;-8.98;79.96
84145;BME280;74264;48.988;12.040;2024-01-10T04:23:18;98748.16;;;-8.97;79.80
84145;BME280;74264;48.988;12.040;2024-01-10T04:25:43;98749.91;;;-8.99;80.40
84145;BME280;74264;48.988;12.040;2024-01-10T04:28:09;98749.03;;;-9.00;80.24
84145;BME280;74264;48.988;12.040;2024-01-10T04:30:34;98741.38;;;-9.01;79.99
84145;BME280;74264;48.988;12.040;2024-01-10T04:33:00;98743.19;;;-9.06;80.87
84145;BME280;74264;48.988;12.040;2024-01-10T04:35:26;98750.13;;;-9.11;80.57
84145;BME280;74264;48.988;12.040;2024-01-10T04:37:52;98751.09;;;-9.17;80.97
84145;BME280;74264;48.988;12.040;2024-01-10T04:40:17;98750.28;;;-9.19;81.48
84145;BME280;74264;48.988;12.040;2024-01-10T04:42:44;98754.59;;;-9.21;81.20
84145;BME280;74264;48.988;12.040;2024-01-10T04:45:09;98755.47;;;-9.24;81.22
84145;BME280;74264;48.988;12.040;2024-01-10T04:47:35;98751.22;;;-9.25;80.84
84145;BME280;74264;48.988;12.040;2024-01-10T04:50:00;98758.88;;;-9.23;80.96
84145;BME280;74264;48.988;12.040;2024-01-10T04:52:26;98758.00;;;-9.22;81.65
84145;BME280;74264;48.988;12.040;2024-01-10T04:54:52;98758.16;;;-9.30;81.36
84145;BME280;74264;48.988;12.040;2024-01-10T04:57:17;98757.38;;;-9.35;81.50
84145;BME280;74264;48.988;12.040;2024-01-10T04:59:43;98756.63;;;-9.40;82.21
84145;BME280;74264;48.988;12.040;2024-01-10T05:02:09;98757.44;;;-9.38;81.61
84145;BME280;74264;48.988;12.040;2024-01-10T05:04:35;98754.00;;;-9.37;81.72
84145;BME280;74264;48.988;12.040;2024-01-10T05:07:01;98757.34;;;-9.32;82.13
84145;BME280;74264;48.988;12.040;2024-01-10T05:09:26;98753.91;;;-9.31;81.89
84145;BME280;74264;48.988;12.040;2024-01-10T05:11:52;98753.91;;;-9.31;82.21
84145;BME280;74264;48.988;12.040;2024-01-10T05:14:18;98759.03;;;-9.31;81.98
84145;BME280;74264;48.988;12.040;2024-01-10T05:16:47;98757.34;;;-9.32;81.70
84145;BME280;74264;48.988;12.040;2024-01-10T05:19:15;98759.91;;;-9.33;82.61
84145;BME280;74264;48.988;12.040;2024-01-10T05:21:41;98760.75;;;-9.33;82.12
84145;BME280;74264;48.988;12.040;2024-01-10T05:24:07;98759.00;;;-9.29;82.30
84145;BME280;74264;48.988;12.040;2024-01-10T05:26:33;98756.41;;;-9.28;82.02
84145;BME280;74264;48.988;12.040;2024-01-10T05:28:58;98755.56;;;-9.28;82.07
84145;BME280;74264;48.988;12.040;2024-01-10T05:31:24;98762.41;;;-9.29;81.86
84145;BME280;74264;48.988;12.040;2024-01-10T05:33:50;98764.09;;;-9.28;81.82
84145;BME280;74264;48.988;12.040;2024-01-10T05:36:15;98764.97;;;-9.29;82.36
84145;BME280;74264;48.988;12.040;2024-01-10T05:38:41;98758.06;;;-9.25;82.37
84145;BME280;74264;48.988;12.040;2024-01-10T05:41:06;98759.78;;;-9.24;82.29
84145;BME280;74264;48.988;12.040;2024-01-10T05:43:32;98767.47;;;-9.26;81.87
84145;BME280;74264;48.988;12.040;2024-01-10T05:45:59;98766.59;;;-9.23;82.12
84145;BME280;74264;48.988;12.040;2024-01-10T05:48:25;98763.06;;;-9.18;81.39
84145;BME280;74264;48.988;12.040;2024-01-10T05:50:50;98769.00;;;-9.16;81.31
84145;BME280;74264;48.988;12.040;2024-01-10T05:53:16;98768.13;;;-9.15;81.56
84145;BME280;74264;48.988;12.040;2024-01-10T05:55:43;98772.41;;;-9.13;81.76
84145;BME280;74264;48.988;12.040;2024-01-10T05:58:09;98765.56;;;-9.15;81.38
84145;BME280;74264;48.988;12.040;2024-01-10T06:00:35;98768.19;;;-9.18;81.59
84145;BME280;74264;48.988;12.040;2024-01-10T06:03:01;98773.41;;;-9.24;81.41
84145;BME280;74264;48.988;12.040;2024-01-10T06:05:26;98768.28;;;-9.24;82.28
84145;BME280;74264;48.988;12.040;2024-01-10T06:07:52;98761.47;;;-9.23;81.59
84145;BME280;74264;48.988;12.040;2024-01-10T06:10:17;98762.25;;;-9.20;81.79
84145;BME280;74264;48.988;12.040;2024-01-10T06:12:43;98764.81;;;-9.20;81.72
84145;BME280;74264;48.988;12.040;2024-01-10T06:15:09;98766.53;;;-9.20;80.92
84145;BME280;74264;48.988;12.040;2024-01-10T06:17:35;98767.53;;;-9.29;81.03
84145;BME280;74264;48.988;12.040;2024-01-10T06:20:00;98771.94;;;-9.37;82.10
84145;BME280;74264;48.988;12.040;2024-01-10T06:22:29;98776.31;;;-9.42;82.00
84145;BME280;74264;48.988;12.040;2024-01-10T06:24:54;98771.25;;;-9.45;82.47
84145;BME280;74264;48.988;12.040;2024-01-10T06:27:20;98776.34;;;-9.43;82.10
84145;BME280;74264;48.988;12.040;2024-01-10T06:29:45;98773.75;;;-9.42;82.00
84145;BME280;74264;48.988;12.040;2024-01-10T06:32:11;98783.16;;;-9.41;82.21
84145;BME280;74264;48.988;12.040;2024-01-10T06:34:37;98777.91;;;-9.35;82.06
84145;BME280;74264;48.988;12.040;2024-01-10T06:37:02;98773.66;;;-9.36;82.06
84145;BME280;74264;48.988;12.040;2024-01-10T06:39:28;98777.91;;;-9.35;81.68
84145;BME280;74264;48.988;12.040;2024-01-10T06:41:54;98783.91;;;-9.36;81.43
84145;BME280;74264;48.988;12.040;2024-01-10T06:44:20;98788.25;;;-9.39;82.39
84145;BME280;74264;48.988;12.040;2024-01-10T06:46:45;98782.97;;;-9.30;82.72
84145;BME280;74264;48.988;12.040;2024-01-10T06:49:11;98790.66;;;-9.30;82.09
84145;BME280;74264;48.988;12.040;2024-01-10T06:51:37;98788.91;;;-9.28;81.85
84145;BME280;74264;48.988;12.040;2024-01-10T06:54:03;98789.72;;;-9.26;82.29
84145;BME280;74264;48.988;12.040;2024-01-10T06:56:29;98792.28;;;-9.28;81.53
84145;BME280;74264;48.988;12.040;2024-01-10T06:58:56;98797.41;;;-9.28;82.23
84145;BME280;74264;48.988;12.040;2024-01-10T07:01:22;98795.69;;;-9.26;82.01
84145;BME280;74264;48.988;12.040;2024-01-10T07:03:48;98804.13;;;-9.19;81.52
84145;BME280;74264;48.988;12.040;2024-01-10T07:06:14;98793.81;;;-9.16;81.63
84145;BME280;74264;48.988;12.040;2024-01-10T07:08:43;98799.78;;;-9.16;81.48
84145;BME280;74264;48.988;12.040;2024-01-10T07:11:09;98796.63;;;-9.30;81.42
84145;BME280;74264;48.988;12.040;2024-01-10T07:13:36;98795.91;;;-9.38;82.08
84145;BME280;74264;48.988;12.040;2024-01-10T07:16:02;98805.25;;;-9.34;82.15
84145;BME280;74264;48.988;12.040;2024-01-10T07:18:28;98804.22;;;-9.25;82.27
84145;BME280;74264;48.988;12.040;2024-01-10T07:20:54;98803.22;;;-9.17;81.79
84145;BME280;74264;48.988;12.040;2024-01-10T07:23:20;98796.53;;;-9.25;81.14
84145;BME280;74264;48.988;12.040;2024-01-10T07:25:46;98798.25;;;-9.26;81.63
84145;BME280;74264;48.988;12.040;2024-01-10T07:28:11;98800.88;;;-9.29;81.81
84145;BME280;74264;48.988;12.040;2024-01-10T07:30:37;98797.44;;;-9.29;81.34
84145;BME280;74264;48.988;12.040;2024-01-10T07:33:02;98795.00;;;-9.35;81.34
84145;BME280;74264;48.988;12.040;2024-01-10T07:35:28;98806.06;;;-9.33;81.84
84145;BME280;74264;48.988;12.040;2024-01-10T07:37:54;98805.19;;;-9.31;81.56
84145;BME280;74264;48.988;12.040;2024-01-10T07:40:20;98802.69;;;-9.34;81.26
84145;BME280;74264;48.988;12.040;2024-01-10T07:42:46;98806.06;;;-9.32;81.86
84145;BME280;74264;48.988;12.040;2024-01-10T07:45:11;98805.22;;;-9.32;81.90
84145;BME280;74264;48.988;12.040;2024-01-10T07:47:37;98806.16;;;-9.38;82.25
84145;BME280;74264;48.988;12.040;2024-01-10T07:50:10;98809.44;;;-9.30;82.10
84145;BME280;74264;48.988;12.040;2024-01-10T07:52:38;98806.72;;;-9.22;81.73
84145;BME280;74264;48.988;12.040;2024-01-10T07:55:03;98801.69;;;-9.27;81.70
84145;BME280;74264;48.988;12.040;2024-01-10T07:57:30;98811.91;;;-9.25;81.97
84145;BME280;74264;48.988;12.040;2024-01-10T07:59:56;98814.38;;;-9.19;81.28
84145;BME280;74264;48.988;12.040;2024-01-10T08:02:22;98815.94;;;-9.10;81.51
84145;BME280;74264;48.988;12.040;2024-01-10T08:04:47;98819.38;;;-9.11;80.96
84145;BME280;74264;48.988;12.040;2024-01-10T08:07:14;98811.63;;;-9.08;81.28
84145;BME280;74264;48.988;12.040;2024-01-10T08:09:39;98818.31;;;-8.98;81.85
84145;BME280;74264;48.988;12.040;2024-01-10T08:12:05;98820.66;;;-8.88;81.03
84145;BME280;74264;48.988;12.040;2024-01-10T08:14:31;98810.31;;;-8.82;80.82
84145;BME280;74264;48.988;12.040;2024-01-10T08:16:56;98821.28;;;-8.75;80.47
84145;BME280;74264;48.988;12.040;2024-01-10T08:19:27;98827.03;;;-8.63;80.74
84145;BME280;74264;48.988;12.040;2024-01-10T08:21:53;98831.94;;;-8.51;80.30
84145;BME280;74264;48.988;12.040;2024-01-10T08:24:19;98829.19;;;-8.42;79.68
84145;BME280;74264;48.988;12.040;2024-01-10T08:26:49;98837.59;;;-8.34;79.97
84145;BME280;74264;48.988;12.040;2024-01-10T08:29:21;98846.75;;;-8.24;80.29
84145;BME280;74264;48.988;12.040;2024-01-10T08:31:47;98842.19;;;-8.10;79.69
84145;BME280;74264;48.988;12.040;2024-01-10T08:34:13;98852.25;;;-7.99;79.39
84145;BME280;74264;48.988;12.040;2024-01-10T08:36:38;98847.13;;;-7.99;79.75
84145;BME280;74264;48.988;12.040;2024-01-10T08:39:04;98845.97;;;-7.87;79.07
84145;BME280;74264;48.988;12.040;2024-01-10T08:41:30;98842.44;;;-7.80;79.13
84145;BME280;74264;48.988;12.040;2024-01-10T08:43:56;98844.88;;;-7.76;78.59
84145;BME280;74264;48.988;12.040;2024-01-10T08:46:22;98856.75;;;-7.70;78.89
84145;BME280;74264;48.988;12.040;2024-01-10T08:48:50;98853.03;;;-7.57;78.42
84145;BME280;74264;48.988;12.040;2024-01-10T08:51:16;98860.41;;;-7.42;77.96
84145;BME280;74264;48.988;12.040;2024-01-10T08:53:43;98854.09;;;-7.29;77.87
84145;BME280;74264;48.988;12.040;2024-01-10T08:56:09;98864.84;;;-7.12;76.71
84145;BME280;74264;48.988;12.040;2024-01-10T08:58:35;98867.94;;;-6.99;76.13
84145;BME280;74264;48.988;12.040;2024-01-10T09:01:02;98866.78;;;-6.88;76.20
84145;BME280;74264;48.988;12.040;2024-01-10T09:03:30;98866.59;;;-6.80;76.63
84145;BME280;74264;48.988;12.040;2024-01-10T09:05:55;98866.38;;;-6.71;77.12
84145;BME280;74264;48.988;12.040;2024-01-10T09:08:21;98864.53;;;-6.66;75.37
84145;BME280;74264;48.988;12.040;2024-01-10T09:10:46;98871.88;;;-6.53;75.45
84145;BME280;74264;48.988;12.040;2024-01-10T09:13:15;98869.84;;;-6.42;75.03
84145;BME280;74264;48.988;12.040;2024-01-10T09:15:41;98865.25;;;-6.31;73.00
84145;BME280;74264;48.988;12.040;2024-01-10T09:18:06;98854.66;;;-6.20;71.98
84145;BME280;74264;48.988;12.040;2024-01-10T09:20:32;98861.34;;;-6.13;72.39
84145;BME280;74264;48.988;12.040;2024-01-10T09:22:57;98865.31;;;-6.03;71.78
84145;BME280;74264;48.988;12.040;2024-01-10T09:25:26;98866.78;;;-5.93;71.51
84145;BME280;74264;48.988;12.040;2024-01-10T09:27:51;98871.53;;;-5.81;70.44
84145;BME280;74264;48.988;12.040;2024-01-10T09:30:17;98872.84;;;-5.68;71.51
84145;BME280;74264;48.988;12.040;2024-01-10T09:32:43;98871.81;;;-5.61;70.47
84145;BME280;74264;48.988;12.040;2024-01-10T09:35:10;98876.59;;;-5.49;71.18
84145;BME280;74264;48.988;12.040;2024-01-10T09:37:35;98875.50;;;-5.42;73.58
84145;BME280;74264;48.988;12.040;2024-01-10T09:40:01;98876.19;;;-5.35;73.94
84145;BME280;74264;48.988;12.040;2024-01-10T09:42:27;98872.06;;;-5.42;72.28
84145;BME280;74264;48.988;12.040;2024-01-10T09:44:53;98865.06;;;-5.37;70.80
84145;BME280;74264;48.988;12.040;2024-01-10T09:47:20;98865.63;;;-5.29;72.66
84145;BME280;74264;48.988;12.040;2024-01-10T09:49:46;98873.94;;;-5.20;72.85
84145;BME280;74264;48.988;12.040;2024-01-10T09:52:23;98877.44;;;-5.21;71.48
84145;BME280;74264;48.988;12.040;2024-01-10T09:54:54;98874.69;;;-5.16;72.30
84145;BME280;74264;48.988;12.040;2024-01-10T09:57:20;98878.69;;;-5.06;71.97
84145;BME280;74264;48.988;12.040;2024-01-10T09:59:47;98882.00;;;-5.03;69.50
84145;BME280;74264;48.988;12.040;2024-01-10T10:02:14;98868.91;;;-4.96;69.20
84145;BME280;74264;48.988;12.040;2024-01-10T10:04:51;98867.81;;;-4.89;68.73
84145;BME280;74264;48.988;12.040;2024-01-10T10:07:19;98876.25;;;-4.84;68.13
84145;BME280;74264;48.988;12.040;2024-01-10T10:09:44;98861.59;;;-4.84;67.77
84145;BME280;74264;48.988;12.040;2024-01-10T10:12:10;98858.09;;;-4.81;67.98
84145;BME280;74264;48.988;12.040;2024-01-10T10:14:35;98857.66;;;-4.69;68.93
84145;BME280;74264;48.988;12.040;2024-01-10T10:17:17;98858.06;;;-4.57;67.78
84145;BME280;74264;48.988;12.040;2024-01-10T10:19:43;98855.97;;;-4.46;68.11
84145;BME280;74264;48.988;12.040;2024-01-10T10:22:12;98862.03;;;-4.47;66.29
84145;BME280;74264;48.988;12.040;2024-01-10T10:24:39;98858.41;;;-4.41;66.72
84145;BME280;74264;48.988;12.040;2024-01-10T10:27:08;98858.34;;;-4.40;66.09
84145;BME280;74264;48.988;12.040;2024-01-10T10:29:36;98863.31;;;-4.34;66.23
84145;BME280;74264;48.988;12.040;2024-01-10T10:32:03;98862.81;;;-4.20;66.25
84145;BME280;74264;48.988;12.040;2024-01-10T10:34:32;98862.47;;;-4.11;66.59
84145;BME280;74264;48.988;12.040;2024-01-10T10:36:58;98856.25;;;-4.06;66.91
84145;BME280;74264;48.988;12.040;2024-01-10T10:39:24;98856.97;;;-4.02;66.31
84145;BME280;74264;48.988;12.040;2024-01-10T10:41:51;98860.78;;;-3.89;67.15
84145;BME280;74264;48.988;12.040;2024-01-10T10:44:19;98866.09;;;-3.92;65.96
84145;BME280;74264;48.988;12.040;2024-01-10T10:46:49;98856.25;;;-3.82;66.00
84145;BME280;74264;48.988;12.040;2024-01-10T10:49:18;98863.31;;;-3.64;67.56
84145;BME280;74264;48.988;12.040;2024-01-10T10:51:50;98866.06;;;-3.46;69.93
84145;BME280;74264;48.988;12.040;2024-01-10T10:54:16;98863.91;;;-3.35;70.19
84145;BME280;74264;48.988;12.040;2024-01-10T10:56:44;98864.47;;;-3.27;69.65
84145;BME280;74264;48.988;12.040;2024-01-10T10:59:12;98865.34;;;-3.28;68.63
84145;BME280;74264;48.988;12.040;2024-01-10T11:01:39;98862.31;;;-3.17;67.35
84145;BME280;74264;48.988;12.040;2024-01-10T11:04:05;98862.28;;;-3.16;68.48
84145;BME280;74264;48.988;12.040;2024-01-10T11:06:31;98852.44;;;-3.08;69.58
84145;BME280;74264;48.988;12.040;2024-01-10T11:09:05;98855.88;;;-3.07;70.95
84145;BME280;74264;48.988;12.040;2024-01-10T11:11:35;98856.84;;;-3.10;66.79
84145;BME280;74264;48.988;12.040;2024-01-10T11:24:47;98853.16;;;-2.82;71.24
84145;BME280;74264;48.988;12.040;2024-01-10T11:27:14;98849.66;;;-2.81;68.47
84145;BME280;74264;48.988;12.040;2024-01-10T11:29:41;98851.22;;;-2.77;69.58
84145;BME280;74264;48.988;12.040;2024-01-10T11:32:14;98842.78;;;-2.82;70.51
84145;BME280;74264;48.988;12.040;2024-01-10T11:35:00;98832.34;;;-2.81;70.20
84145;BME280;74264;48.988;12.040;2024-01-10T11:37:39;98833.84;;;-2.75;70.67
84145;BME280;74264;48.988;12.040;2024-01-10T11:40:11;98830.53;;;-2.79;68.97
84145;BME280;74264;48.988;12.040;2024-01-10T11:42:44;98828.53;;;-2.72;69.18
84145;BME280;74264;48.988;12.040;2024-01-10T11:45:37;98830.16;;;-2.70;68.03
84145;BME280;74264;48.988;12.040;2024-01-10T11:48:03;98831.41;;;-2.58;70.15
84145;BME280;74264;48.988;12.040;2024-01-10T11:50:29;98834.75;;;-2.56;68.73
84145;BME280;74264;48.988;12.040;2024-01-10T11:52:56;98832.16;;;-2.36;66.55
84145;BME280;74264;48.988;12.040;2024-01-10T11:55:51;98829.63;;;-2.38;68.54
84145;BME280;74264;48.988;12.040;2024-01-10T11:58:17;98827.53;;;-2.30;71.31
84145;BME280;74264;48.988;12.040;2024-01-10T12:00:43;98821.78;;;-2.36;67.27
84145;BME280;74264;48.988;12.040;2024-01-10T12:03:11;98823.22;;;-2.29;65.97
84145;BME280;74264;48.988;12.040;2024-01-10T12:05:36;98820.50;;;-2.08;64.35
84145;BME280;74264;48.988;12.040;2024-01-10T12:08:07;98823.94;;;-2.07;64.64
84145;BME280;74264;48.988;12.040;2024-01-10T12:10:45;98817.78;;;-1.86;64.42
84145;BME280;74264;48.988;12.040;2024-01-10T12:13:10;98818.78;;;-1.70;63.90
84145;BME280;74264;48.988;12.040;2024-01-10T12:15:36;98819.94;;;-1.58;64.96
84145;BME280;74264;48.988;12.040;2024-01-10T12:18:02;98815.78;;;-1.44;62.61
84145;BME280;74264;48.988;12.040;2024-01-10T12:20:28;98816.91;;;-1.31;61.94
84145;BME280;74264;48.988;12.040;2024-01-10T12:22:54;98812.66;;;-1.15;62.35
84145;BME280;74264;48.988;12.040;2024-01-10T12:25:20;98815.81;;;-0.91;62.24
84145;BME280;74264;48.988;12.040;2024-01-10T12:27:46;98814.00;;;-0.89;61.98
84145;BME280;74264;48.988;12.040;2024-01-10T12:30:12;98816.06;;;-0.78;62.41
84145;BME280;74264;48.988;12.040;2024-01-10T12:32:37;98815.84;;;-0.74;62.11
84145;BME280;74264;48.988;12.040;2024-01-10T12:35:04;98814.34;;;-0.28;59.44
84145;BME280;74264;48.988;12.040;2024-01-10T12:37:31;98816.72;;;0.25;57.12
84145;BME280;74264;48.988;12.040;2024-01-10T12:39:57;98811.25;;;-0.19;58.52
84145;BME280;74264;48.988;12.040;2024-01-10T12:42:23;98812.50;;;0.07;56.49
84145;BME280;74264;48.988;12.040;2024-01-10T12:44:52;98806.16;;;-0.05;55.34
84145;BME280;74264;48.988;12.040;2024-01-10T12:47:22;98803.53;;;0.28;56.09
84145;BME280;74264;48.988;12.040;2024-01-10T12:49:49;98807.91;;;0.27;55.61
84145;BME280;74264;48.988;12.040;2024-01-10T12:52:15;98795.59;;;-0.02;55.25
84145;BME280;74264;48.988;12.040;2024-01-10T12:54:41;98807.25;;;-0.09;55.48
84145;BME280;74264;48.988;12.040;2024-01-10T12:57:07;98803.06;;;0.04;57.40